sensor_id;sensor_type;location;lat;lon;timestamp;pressure;altitude;pressure_sealevel;temperature
19061;BMP280;9663;48.996;8.334;2023-02-14T00:00:41;102271.72;;;7.07
19061;BMP280;9663;48.996;8.334;2023-02-14T00:03:08;102268.28;;;7.05
19061;BMP280;9663;48.996;8.334;2023-02-14T00:05:33;102269.06;;;7.03
19061;BMP280;9663;48.996;8.334;2023-02-14T00:07:59;102257.91;;;6.98
19061;BMP280;9663;48.996;8.334;2023-02-14T00:10:25;102266.31;;;6.98
19061;BMP280;9663;48.996;8.334;2023-02-14T00:12:50;102265.47;;;6.98
19061;BMP280;9663;48.996;8.334;2023-02-14T00:15:17;102268.03;;;6.99
19061;BMP280;9663;48.996;8.334;2023-02-14T00:17:55;102266.41;;;7.00
19061;BMP280;9663;48.996;8.334;2023-02-14T00:20:22;102265.72;;;7.04
19061;BMP280;9663;48.996;8.334;2023-02-14T00:22:48;102259.06;;;7.06
19061;BMP280;9663;48.996;8.334;2023-02-14T00:25:13;102256.53;;;7.06
19061;BMP280;9663;48.996;8.334;2023-02-14T00:27:39;102262.25;;;7.02
19061;BMP280;9663;48.996;8.334;2023-02-14T00:30:07;102254.44;;;6.96
19061;BMP280;9663;48.996;8.334;2023-02-14T00:32:35;102250.84;;;6.91
19061;BMP280;9663;48.996;8.334;2023-02-14T00:35:01;102261.78;;;6.90
19061;BMP280;9663;48.996;8.334;2023-02-14T00:41:08;102251.22;;;6.79
19061;BMP280;9663;48.996;8.334;2023-02-14T00:43:33;102245.38;;;6.80
19061;BMP280;9663;48.996;8.334;2023-02-14T00:45:59;102237.88;;;6.82
19061;BMP280;9663;48.996;8.334;2023-02-14T00:48:24;102249.72;;;6.83
19061;BMP280;9663;48.996;8.334;2023-02-14T00:50:50;102246.44;;;6.85
19061;BMP280;9663;48.996;8.334;2023-02-14T00:53:16;102255.59;;;6.83
19061;BMP280;9663;48.996;8.334;2023-02-14T00:55:44;102252.16;;;6.81
19061;BMP280;9663;48.996;8.334;2023-02-14T00:58:10;102260.44;;;6.79
19061;BMP280;9663;48.996;8.334;2023-02-14T01:00:36;102262.13;;;6.79
19061;BMP280;9663;48.996;8.334;2023-02-14T01:03:02;102259.59;;;6.79
19061;BMP280;9663;48.996;8.334;2023-02-14T01:05:27;102266.19;;;6.75
19061;BMP280;9663;48.996;8.334;2023-02-14T01:07:53;102270.28;;;6.73
19061;BMP280;9663;48.996;8.334;2023-02-14T01:10:19;102259.13;;;6.68
19061;BMP280;9663;48.996;8.334;2023-02-14T01:12:44;102264.06;;;6.65
19061;BMP280;9663;48.996;8.334;2023-02-14T01:15:10;102263.09;;;6.62
19061;BMP280;9663;48.996;8.334;2023-02-14T01:17:36;102272.28;;;6.61
19061;BMP280;9663;48.996;8.334;2023-02-14T01:20:01;102266.59;;;6.65
19061;BMP280;9663;48.996;8.334;2023-02-14T01:22:28;102273.41;;;6.68
19061;BMP280;9663;48.996;8.334;2023-02-14T01:24:54;102268.44;;;6.69
19061;BMP280;9663;48.996;8.334;2023-02-14T01:27:19;102266.81;;;6.71
19061;BMP280;9663;48.996;8.334;2023-02-14T01:29:45;102267.75;;;6.73
19061;BMP280;9663;48.996;8.334;2023-02-14T01:32:10;102263.47;;;6.71
19061;BMP280;9663;48.996;8.334;2023-02-14T01:34:36;102260.16;;;6.72
19061;BMP280;9663;48.996;8.334;2023-02-14T01:37:02;102271.09;;;6.72
19061;BMP280;9663;48.996;8.334;2023-02-14T01:39:27;102262.66;;;6.72
19061;BMP280;9663;48.996;8.334;2023-02-14T01:41:53;102267.75;;;6.73
19061;BMP280;9663;48.996;8.334;2023-02-14T01:47:05;102268.94;;;6.81
19061;BMP280;9663;48.996;8.334;2023-02-14T01:49:38;102278.38;;;6.85
19061;BMP280;9663;48.996;8.334;2023-02-14T01:52:28;102272.53;;;6.86
19061;BMP280;9663;48.996;8.334;2023-02-14T01:55:06;102273.56;;;6.91
19061;BMP280;9663;48.996;8.334;2023-02-14T01:57:40;102274.56;;;6.94
19061;BMP280;9663;48.996;8.334;2023-02-14T02:00:08;102271.94;;;6.91
19061;BMP280;9663;48.996;8.334;2023-02-14T02:02:55;102276.03;;;6.89
19061;BMP280;9663;48.996;8.334;2023-02-14T02:05:23;102272.53;;;6.86
19061;BMP280;9663;48.996;8.334;2023-02-14T02:07:56;102270.81;;;6.85
19061;BMP280;9663;48.996;8.334;2023-02-14T02:10:23;102270.59;;;6.80
19061;BMP280;9663;48.996;8.334;2023-02-14T02:12:52;102266.34;;;6.79
19061;BMP280;9663;48.996;8.334;2023-02-14T02:15:22;102268.09;;;6.80
19061;BMP280;9663;48.996;8.334;2023-02-14T02:21:11;102269.34;;;6.90
19061;BMP280;9663;48.996;8.334;2023-02-14T02:35:47;102248.97;;;7.06
19061;BMP280;9663;48.996;8.334;2023-02-14T02:38:37;102234.75;;;7.08
19061;BMP280;9663;48.996;8.334;2023-02-14T02:42:02;102249.84;;;7.06
19061;BMP280;9663;48.996;8.334;2023-02-14T02:47:54;102251.53;;;7.07
19061;BMP280;9663;48.996;8.334;2023-02-14T02:50:36;102251.53;;;7.07
19061;BMP280;9663;48.996;8.334;2023-02-14T02:53:50;102248.94;;;7.04
19061;BMP280;9663;48.996;8.334;2023-02-14T02:56:40;102242.13;;;7.03
19061;BMP280;9663;48.996;8.334;2023-02-14T02:59:26;102258.97;;;7.03
19061;BMP280;9663;48.996;8.334;2023-02-14T03:04:22;102242.75;;;6.98
19061;BMP280;9663;48.996;8.334;2023-02-14T03:07:07;102244.28;;;6.94
19061;BMP280;9663;48.996;8.334;2023-02-14T03:09:54;102244.09;;;6.90
19061;BMP280;9663;48.996;8.334;2023-02-14T03:15:35;102243.00;;;6.83
19061;BMP280;9663;48.996;8.334;2023-02-14T03:21:14;102246.22;;;6.81
19061;BMP280;9663;48.996;8.334;2023-02-14T03:24:22;102246.22;;;6.81
19061;BMP280;9663;48.996;8.334;2023-02-14T03:32:25;102246.22;;;6.81
19061;BMP280;9663;48.996;8.334;2023-02-14T03:35:17;102251.34;;;6.82
19061;BMP280;9663;48.996;8.334;2023-02-14T03:40:48;102254.75;;;6.83
19061;BMP280;9663;48.996;8.334;2023-02-14T03:43:31;102243.84;;;6.84
19061;BMP280;9663;48.996;8.334;2023-02-14T03:46:16;102243.00;;;6.83
19061;BMP280;9663;48.996;8.334;2023-02-14T03:48:44;102245.66;;;6.86
19061;BMP280;9663;48.996;8.334;2023-02-14T03:51:13;102250.78;;;6.89
19061;BMP280;9663;48.996;8.334;2023-02-14T03:53:45;102251.75;;;6.91
19061;BMP280;9663;48.996;8.334;2023-02-14T03:58:46;102252.78;;;6.96
19061;BMP280;9663;48.996;8.334;2023-02-14T04:01:58;102246.06;;;6.97
19061;BMP280;9663;48.996;8.334;2023-02-14T04:04:19;102246.00;;;6.95
19061;BMP280;9663;48.996;8.334;2023-02-14T04:06:45;102256.09;;;6.95
19061;BMP280;9663;48.996;8.334;2023-02-14T04:09:11;102254.44;;;6.96
19061;BMP280;9663;48.996;8.334;2023-02-14T04:11:36;102249.31;;;6.94
19061;BMP280;9663;48.996;8.334;2023-02-14T04:14:04;102256.88;;;6.94
19061;BMP280;9663;48.996;8.334;2023-02-14T04:16:30;102255.06;;;6.90
19061;BMP280;9663;48.996;8.334;2023-02-14T04:19:16;102253.38;;;6.91
19061;BMP280;9663;48.996;8.334;2023-02-14T04:21:49;102255.84;;;6.89
19061;BMP280;9663;48.996;8.334;2023-02-14T04:24:15;102249.81;;;6.86
19061;BMP280;9663;48.996;8.334;2023-02-14T04:26:41;102244.66;;;6.83
19061;BMP280;9663;48.996;8.334;2023-02-14T04:29:19;102253.63;;;6.77
19061;BMP280;9663;48.996;8.334;2023-02-14T04:31:46;102254.16;;;6.70
19061;BMP280;9663;48.996;8.334;2023-02-14T04:34:12;102253.97;;;6.65
19061;BMP280;9663;48.996;8.334;2023-02-14T04:36:38;102250.50;;;6.63
19061;BMP280;9663;48.996;8.334;2023-02-14T04:39:04;102253.72;;;6.59
19061;BMP280;9663;48.996;8.334;2023-02-14T04:41:29;102252.72;;;6.56
19061;BMP280;9663;48.996;8.334;2023-02-14T04:43:55;102248.28;;;6.50
19061;BMP280;9663;48.996;8.334;2023-02-14T04:46:21;102244.81;;;6.48
19061;BMP280;9663;48.996;8.334;2023-02-14T04:48:46;102246.41;;;6.46
19061;BMP280;9663;48.996;8.334;2023-02-14T04:51:12;102249.81;;;6.47
19061;BMP280;9663;48.996;8.334;2023-02-14T04:53:38;102249.81;;;6.47
19061;BMP280;9663;48.996;8.334;2023-02-14T04:56:06;102242.13;;;6.44
19061;BMP280;9663;48.996;8.334;2023-02-14T04:58:32;102243.59;;;6.39
19061;BMP280;9663;48.996;8.334;2023-02-14T05:00:58;102242.53;;;6.34
19061;BMP280;9663;48.996;8.334;2023-02-14T05:03:24;102240.59;;;6.29
19061;BMP280;9663;48.996;8.334;2023-02-14T05:05:49;102237.88;;;6.24
19061;BMP280;9663;48.996;8.334;2023-02-14T05:08:15;102237.81;;;6.23
19061;BMP280;9663;48.996;8.334;2023-02-14T05:10:41;102231.03;;;6.22
19061;BMP280;9663;48.996;8.334;2023-02-14T05:13:06;102233.50;;;6.20
19061;BMP280;9663;48.996;8.334;2023-02-14T05:15:32;102231.66;;;6.16
19061;BMP280;9663;48.996;8.334;2023-02-14T05:17:58;102240.72;;;6.13
19061;BMP280;9663;48.996;8.334;2023-02-14T05:20:28;102232.88;;;6.07
19061;BMP280;9663;48.996;8.334;2023-02-14T05:22:54;102237.66;;;6.01
19061;BMP280;9663;48.996;8.334;2023-02-14T05:25:19;102242.56;;;5.98
19061;BMP280;9663;48.996;8.334;2023-02-14T05:27:45;102235.72;;;5.95
19061;BMP280;9663;48.996;8.334;2023-02-14T05:30:12;102239.84;;;5.94
19061;BMP280;9663;48.996;8.334;2023-02-14T05:32:37;102250.63;;;5.91
19061;BMP280;9663;48.996;8.334;2023-02-14T05:35:04;102248.03;;;5.90
19061;BMP280;9663;48.996;8.334;2023-02-14T05:37:30;102250.44;;;5.87
19061;BMP280;9663;48.996;8.334;2023-02-14T05:39:55;102251.22;;;5.86
19061;BMP280;9663;48.996;8.334;2023-02-14T05:42:21;102257.94;;;5.85
19061;BMP280;9663;48.996;8.334;2023-02-14T05:44:46;102267.06;;;5.83
19061;BMP280;9663;48.996;8.334;2023-02-14T05:47:13;102254.41;;;5.82
19061;BMP280;9663;48.996;8.334;2023-02-14T05:49:39;102262.66;;;5.79
19061;BMP280;9663;48.996;8.334;2023-02-14T05:52:05;102258.22;;;5.74
19061;BMP280;9663;48.996;8.334;2023-02-14T05:54:31;102261.34;;;5.70
19061;BMP280;9663;48.996;8.334;2023-02-14T05:56:56;102261.34;;;5.70
19061;BMP280;9663;48.996;8.334;2023-02-14T05:59:22;102272.31;;;5.70
19061;BMP280;9663;48.996;8.334;2023-02-14T06:01:48;102262.88;;;5.66
19061;BMP280;9663;48.996;8.334;2023-02-14T06:04:13;102268.56;;;5.62
19061;BMP280;9663;48.996;8.334;2023-02-14T06:06:39;102270.84;;;5.58
19061;BMP280;9663;48.996;8.334;2023-02-14T06:09:05;102269.00;;;5.54
19061;BMP280;9663;48.996;8.334;2023-02-14T06:11:30;102263.91;;;5.52
19061;BMP280;9663;48.996;8.334;2023-02-14T06:13:56;102265.34;;;5.48
19061;BMP280;9663;48.996;8.334;2023-02-14T06:16:22;102264.34;;;5.44
19061;BMP280;9663;48.996;8.334;2023-02-14T06:18:48;102276.03;;;5.44
19061;BMP280;9663;48.996;8.334;2023-02-14T06:21:13;102276.84;;;5.43
19061;BMP280;9663;48.996;8.334;2023-02-14T06:23:39;102282.16;;;5.49
19061;BMP280;9663;48.996;8.334;2023-02-14T06:26:04;102271.16;;;5.47
19061;BMP280;9663;48.996;8.334;2023-02-14T06:28:30;102280.44;;;5.48
19061;BMP280;9663;48.996;8.334;2023-02-14T06:30:56;102281.44;;;5.51
19061;BMP280;9663;48.996;8.334;2023-02-14T06:33:21;102282.44;;;5.54
19061;BMP280;9663;48.996;8.334;2023-02-14T06:35:47;102284.25;;;5.57
19061;BMP280;9663;48.996;8.334;2023-02-14T06:38:13;102282.53;;;5.56
19061;BMP280;9663;48.996;8.334;2023-02-14T06:40:38;102286.78;;;5.57
19061;BMP280;9663;48.996;8.334;2023-02-14T06:43:04;102290.22;;;5.59
19061;BMP280;9663;48.996;8.334;2023-02-14T06:45:30;102292.00;;;5.61
19061;BMP280;9663;48.996;8.334;2023-02-14T06:47:56;102289.50;;;5.61
19061;BMP280;9663;48.996;8.334;2023-02-14T06:50:21;102293.91;;;5.65
19061;BMP280;9663;48.996;8.334;2023-02-14T06:52:47;102294.75;;;5.66
19061;BMP280;9663;48.996;8.334;2023-02-14T06:55:13;102298.94;;;5.65
19061;BMP280;9663;48.996;8.334;2023-02-14T06:57:38;102300.88;;;5.71
19061;BMP280;9663;48.996;8.334;2023-02-14T07:00:05;102296.00;;;5.74
19061;BMP280;9663;48.996;8.334;2023-02-14T07:02:32;102291.13;;;5.77
19061;BMP280;9663;48.996;8.334;2023-02-14T07:04:57;102289.59;;;5.80
19061;BMP280;9663;48.996;8.334;2023-02-14T07:07:23;102291.44;;;5.84
19061;BMP280;9663;48.996;8.334;2023-02-14T07:09:48;102294.19;;;5.89
19061;BMP280;9663;48.996;8.334;2023-02-14T07:12:14;102287.63;;;5.92
19061;BMP280;9663;48.996;8.334;2023-02-14T07:14:40;102296.25;;;5.97
19061;BMP280;9663;48.996;8.334;2023-02-14T07:17:05;102278.78;;;6.00
19061;BMP280;9663;48.996;8.334;2023-02-14T07:19:31;102279.84;;;6.05
19061;BMP280;9663;48.996;8.334;2023-02-14T07:21:57;102286.72;;;6.09
19061;BMP280;9663;48.996;8.334;2023-02-14T07:24:22;102277.56;;;6.11
19061;BMP280;9663;48.996;8.334;2023-02-14T07:26:48;102275.00;;;6.09
19061;BMP280;9663;48.996;8.334;2023-02-14T07:29:14;102275.06;;;6.11
19061;BMP280;9663;48.996;8.334;2023-02-14T07:31:39;102286.72;;;6.09
19061;BMP280;9663;48.996;8.334;2023-02-14T07:34:05;102277.31;;;6.05
19061;BMP280;9663;48.996;8.334;2023-02-14T07:36:31;102281.50;;;6.04
19061;BMP280;9663;48.996;8.334;2023-02-14T07:38:57;102286.47;;;6.03
19061;BMP280;9663;48.996;8.334;2023-02-14T07:41:22;102284.03;;;6.04
19061;BMP280;9663;48.996;8.334;2023-02-14T07:43:48;102283.28;;;6.07
19061;BMP280;9663;48.996;8.334;2023-02-14T07:46:14;102287.66;;;6.11
19061;BMP280;9663;48.996;8.334;2023-02-14T07:48:41;102281.16;;;6.16
19061;BMP280;9663;48.996;8.334;2023-02-14T07:51:07;102278.78;;;6.19
19061;BMP280;9663;48.996;8.334;2023-02-14T07:53:33;102280.59;;;6.21
19061;BMP280;9663;48.996;8.334;2023-02-14T07:55:59;102281.66;;;6.26
19061;BMP280;9663;48.996;8.334;2023-02-14T07:58:24;102286.84;;;6.29
19061;BMP280;9663;48.996;8.334;2023-02-14T08:00:50;102282.94;;;6.36
19061;BMP280;9663;48.996;8.334;2023-02-14T08:03:16;102292.34;;;6.39
19061;BMP280;9663;48.996;8.334;2023-02-14T08:05:42;102280.66;;;6.41
19061;BMP280;9663;48.996;8.334;2023-02-14T08:08:08;102284.16;;;6.45
19061;BMP280;9663;48.996;8.334;2023-02-14T08:10:34;102295.91;;;6.44
19061;BMP280;9663;48.996;8.334;2023-02-14T08:12:59;102289.16;;;6.43
19061;BMP280;9663;48.996;8.334;2023-02-14T08:15:34;102279.00;;;6.42
19061;BMP280;9663;48.996;8.334;2023-02-14T08:18:20;102278.22;;;6.43
19061;BMP280;9663;48.996;8.334;2023-02-14T08:20:48;102279.06;;;6.43
19061;BMP280;9663;48.996;8.334;2023-02-14T08:23:15;102281.72;;;6.46
19061;BMP280;9663;48.996;8.334;2023-02-14T08:25:41;102275.97;;;6.49
19061;BMP280;9663;48.996;8.334;2023-02-14T08:28:06;102276.94;;;6.52
19061;BMP280;9663;48.996;8.334;2023-02-14T08:30:36;102276.34;;;6.58
19061;BMP280;9663;48.996;8.334;2023-02-14T08:33:03;102280.75;;;6.62
19061;BMP280;9663;48.996;8.334;2023-02-14T08:35:29;102286.03;;;6.68
19061;BMP280;9663;48.996;8.334;2023-02-14T08:37:54;102287.16;;;6.74
19061;BMP280;9663;48.996;8.334;2023-02-14T08:40:20;102283.91;;;6.77
19061;BMP280;9663;48.996;8.334;2023-02-14T08:42:46;102278.19;;;6.80
19061;BMP280;9663;48.996;8.334;2023-02-14T08:45:12;102281.03;;;6.88
19061;BMP280;9663;48.996;8.334;2023-02-14T08:47:37;102279.66;;;6.96
19061;BMP280;9663;48.996;8.334;2023-02-14T08:50:08;102285.97;;;7.05
19061;BMP280;9663;48.996;8.334;2023-02-14T08:52:34;102287.88;;;7.11
19061;BMP280;9663;48.996;8.334;2023-02-14T08:55:01;102283.06;;;7.17
19061;BMP280;9663;48.996;8.334;2023-02-14T08:57:27;102279.84;;;7.19
19061;BMP280;9663;48.996;8.334;2023-02-14T08:59:53;102277.34;;;7.21
19061;BMP280;9663;48.996;8.334;2023-02-14T09:02:19;102271.56;;;7.23
19061;BMP280;9663;48.996;8.334;2023-02-14T09:04:45;102280.91;;;7.25
19061;BMP280;9663;48.996;8.334;2023-02-14T09:07:12;102275.13;;;7.28
19061;BMP280;9663;48.996;8.334;2023-02-14T09:09:37;102280.31;;;7.31
19061;BMP280;9663;48.996;8.334;2023-02-14T09:12:06;102282.09;;;7.33
19061;BMP280;9663;48.996;8.334;2023-02-14T09:14:41;102282.16;;;7.35
19061;BMP280;9663;48.996;8.334;2023-02-14T09:17:09;102283.81;;;7.34
19061;BMP280;9663;48.996;8.334;2023-02-14T09:19:36;102283.94;;;7.37
19061;BMP280;9663;48.996;8.334;2023-02-14T09:22:05;102283.25;;;7.41
19061;BMP280;9663;48.996;8.334;2023-02-14T09:24:33;102280.84;;;7.44
19061;BMP280;9663;48.996;8.334;2023-02-14T09:26:59;102282.69;;;7.48
19061;BMP280;9663;48.996;8.334;2023-02-14T09:29:27;102276.91;;;7.51
19061;BMP280;9663;48.996;8.334;2023-02-14T09:31:58;102267.91;;;7.57
19061;BMP280;9663;48.996;8.334;2023-02-14T09:34:26;102274.84;;;7.63
19061;BMP280;9663;48.996;8.334;2023-02-14T09:36:52;102274.22;;;7.68
19061;BMP280;9663;48.996;8.334;2023-02-14T09:39:18;102262.69;;;7.74
19061;BMP280;9663;48.996;8.334;2023-02-14T09:44:56;102263.00;;;7.82
19061;BMP280;9663;48.996;8.334;2023-02-14T09:47:35;102257.09;;;7.83
19061;BMP280;9663;48.996;8.334;2023-02-14T09:53:05;102256.50;;;7.88
19061;BMP280;9663;48.996;8.334;2023-02-14T09:58:45;102248.91;;;7.88
19061;BMP280;9663;48.996;8.334;2023-02-14T10:01:33;102255.97;;;7.97
19061;BMP280;9663;48.996;8.334;2023-02-14T10:04:40;102254.66;;;8.06
19061;BMP280;9663;48.996;8.334;2023-02-14T10:07:17;102247.47;;;8.16
19061;BMP280;9663;48.996;8.334;2023-02-14T10:12:46;102251.56;;;8.36
19061;BMP280;9663;48.996;8.334;2023-02-14T10:15:24;102238.34;;;8.43
19061;BMP280;9663;48.996;8.334;2023-02-14T10:18:02;102250.25;;;8.46
19061;BMP280;9663;48.996;8.334;2023-02-14T10:20:35;102243.69;;;8.51
19061;BMP280;9663;48.996;8.334;2023-02-14T10:23:20;102245.50;;;8.54
19061;BMP280;9663;48.996;8.334;2023-02-14T10:26:11;102249.59;;;8.51
19061;BMP280;9663;48.996;8.334;2023-02-14T10:28:44;102251.38;;;8.53
19061;BMP280;9663;48.996;8.334;2023-02-14T10:31:37;102251.44;;;8.55
19061;BMP280;9663;48.996;8.334;2023-02-14T10:34:26;102250.59;;;8.56
19061;BMP280;9663;48.996;8.334;2023-02-14T10:37:40;102244.53;;;8.51
19061;BMP280;9663;48.996;8.334;2023-02-14T10:40:42;102246.25;;;8.52
19061;BMP280;9663;48.996;8.334;2023-02-14T10:49:12;102234.75;;;8.61
19061;BMP280;9663;48.996;8.334;2023-02-14T10:54:45;102231.09;;;8.77
19061;BMP280;9663;48.996;8.334;2023-02-14T11:00:07;102223.41;;;8.98
19061;BMP280;9663;48.996;8.334;2023-02-14T11:02:43;102222.19;;;9.12
19061;BMP280;9663;48.996;8.334;2023-02-14T11:07:52;102218.41;;;9.26
19061;BMP280;9663;48.996;8.334;2023-02-14T11:10:23;102208.28;;;9.26
19061;BMP280;9663;48.996;8.334;2023-02-14T11:12:49;102210.69;;;9.23
19061;BMP280;9663;48.996;8.334;2023-02-14T11:15:22;102210.59;;;9.20
19061;BMP280;9663;48.996;8.334;2023-02-14T11:17:49;102203.69;;;9.15
19061;BMP280;9663;48.996;8.334;2023-02-14T11:20:28;102199.19;;;9.06
19061;BMP280;9663;48.996;8.334;2023-02-14T11:22:55;102192.22;;;8.99
19061;BMP280;9663;48.996;8.334;2023-02-14T11:25:28;102187.91;;;8.97
19061;BMP280;9663;48.996;8.334;2023-02-14T11:28:01;102182.84;;;8.97
19061;BMP280;9663;48.996;8.334;2023-02-14T11:30:40;102181.25;;;9.00
19061;BMP280;9663;48.996;8.334;2023-02-14T11:33:12;102173.91;;;9.08
19061;BMP280;9663;48.996;8.334;2023-02-14T11:35:50;102180.22;;;9.20
19061;BMP280;9663;48.996;8.334;2023-02-14T11:38:35;102169.75;;;9.36
19061;BMP280;9663;48.996;8.334;2023-02-14T11:41:07;102168.41;;;9.47
19061;BMP280;9663;48.996;8.334;2023-02-14T11:43:42;102170.50;;;9.61
19061;BMP280;9663;48.996;8.334;2023-02-14T11:49:22;102154.41;;;9.88
19061;BMP280;9663;48.996;8.334;2023-02-14T11:51:48;102148.81;;;9.98
19061;BMP280;9663;48.996;8.334;2023-02-14T11:54:54;102149.88;;;10.06
19061;BMP280;9663;48.996;8.334;2023-02-14T11:57:37;102141.75;;;10.18
19061;BMP280;9663;48.996;8.334;2023-02-14T12:00:16;102135.97;;;10.23
19061;BMP280;9663;48.996;8.334;2023-02-14T12:02:45;102133.47;;;10.24
19061;BMP280;9663;48.996;8.334;2023-02-14T12:05:25;102135.19;;;10.25
19061;BMP280;9663;48.996;8.334;2023-02-14T12:08:05;102131.72;;;10.22
19061;BMP280;9663;48.996;8.334;2023-02-14T12:10:34;102129.91;;;10.18
19061;BMP280;9663;48.996;8.334;2023-02-14T12:15:36;102129.09;;;10.19
19061;BMP280;9663;48.996;8.334;2023-02-14T12:21:23;102112.69;;;10.37
19061;BMP280;9663;48.996;8.334;2023-02-14T12:29:44;102103.38;;;10.38
19061;BMP280;9663;48.996;8.334;2023-02-14T12:32:21;102106.88;;;10.43
19061;BMP280;9663;48.996;8.334;2023-02-14T12:34:49;102108.66;;;10.45
19061;BMP280;9663;48.996;8.334;2023-02-14T12:37:52;102097.56;;;10.42
19061;BMP280;9663;48.996;8.334;2023-02-14T12:40:59;102102.69;;;10.45
19061;BMP280;9663;48.996;8.334;2023-02-14T12:43:54;102088.53;;;10.53
19061;BMP280;9663;48.996;8.334;2023-02-14T12:47:02;102084.75;;;10.71
19061;BMP280;9663;48.996;8.334;2023-02-14T13:06:29;102071.63;;;11.26
19061;BMP280;9663;48.996;8.334;2023-02-14T13:09:02;102067.38;;;11.25
19061;BMP280;9663;48.996;8.334;2023-02-14T13:12:14;102068.03;;;11.17
19061;BMP280;9663;48.996;8.334;2023-02-14T13:15:33;102061.22;;;11.14
19061;BMP280;9663;48.996;8.334;2023-02-14T13:21:17;102058.25;;;11.35
19061;BMP280;9663;48.996;8.334;2023-02-14T13:23:46;102047.56;;;11.49
19061;BMP280;9663;48.996;8.334;2023-02-14T13:26:25;102040.34;;;11.68
19061;BMP280;9663;48.996;8.334;2023-02-14T13:29:03;102039.13;;;11.93
19061;BMP280;9663;48.996;8.334;2023-02-14T13:31:30;102034.34;;;12.12
19061;BMP280;9663;48.996;8.334;2023-02-14T13:34:29;102015.88;;;12.23
19061;BMP280;9663;48.996;8.334;2023-02-14T13:36:58;102020.16;;;12.24
19061;BMP280;9663;48.996;8.334;2023-02-14T13:39:31;102025.09;;;12.17
19061;BMP280;9663;48.996;8.334;2023-02-14T13:41:59;102019.97;;;12.12
19061;BMP280;9663;48.996;8.334;2023-02-14T13:47:18;102017.22;;;12.02
19061;BMP280;9663;48.996;8.334;2023-02-14T13:49:55;102017.88;;;11.92
19061;BMP280;9663;48.996;8.334;2023-02-14T13:52:43;102017.78;;;11.85
19061;BMP280;9663;48.996;8.334;2023-02-14T13:55:20;102014.25;;;11.78
19061;BMP280;9663;48.996;8.334;2023-02-14T13:58:06;102003.13;;;11.72
19061;BMP280;9663;48.996;8.334;2023-02-14T14:00:43;101997.88;;;11.64
19061;BMP280;9663;48.996;8.334;2023-02-14T14:06:12;101996.78;;;11.51
19061;BMP280;9663;48.996;8.334;2023-02-14T14:08:47;101996.75;;;11.49
19061;BMP280;9663;48.996;8.334;2023-02-14T14:18:50;101994.06;;;11.45
19061;BMP280;9663;48.996;8.334;2023-02-14T14:21:42;101991.50;;;11.42
19061;BMP280;9663;48.996;8.334;2023-02-14T14:29:51;101987.56;;;11.55
19061;BMP280;9663;48.996;8.334;2023-02-14T14:32:31;101982.66;;;11.66
19061;BMP280;9663;48.996;8.334;2023-02-14T14:37:48;101976.75;;;11.67
19061;BMP280;9663;48.996;8.334;2023-02-14T14:40:37;101972.53;;;11.67
19061;BMP280;9663;48.996;8.334;2023-02-14T14:43:21;101975.94;;;11.68
19061;BMP280;9663;48.996;8.334;2023-02-14T14:45:49;101969.22;;;11.71
19061;BMP280;9663;48.996;8.334;2023-02-14T14:48:39;101965.84;;;11.72
19061;BMP280;9663;48.996;8.334;2023-02-14T14:51:08;101965.09;;;11.78
19061;BMP280;9663;48.996;8.334;2023-02-14T14:53:47;101960.94;;;11.83
19061;BMP280;9663;48.996;8.334;2023-02-14T14:56:43;101972.03;;;11.86
19061;BMP280;9663;48.996;8.334;2023-02-14T15:01:49;101951.75;;;11.89
19061;BMP280;9663;48.996;8.334;2023-02-14T15:04:34;101943.25;;;11.90
19061;BMP280;9663;48.996;8.334;2023-02-14T15:07:33;101943.31;;;11.93
19061;BMP280;9663;48.996;8.334;2023-02-14T15:09:59;101936.72;;;12.04
19061;BMP280;9663;48.996;8.334;2023-02-14T15:12:26;101935.34;;;12.24
19061;BMP280;9663;48.996;8.334;2023-02-14T15:15:16;101943.56;;;12.64
19061;BMP280;9663;48.996;8.334;2023-02-14T15:17:43;101933.09;;;13.06
19061;BMP280;9663;48.996;8.334;2023-02-14T15:20:18;101931.13;;;13.58
19061;BMP280;9663;48.996;8.334;2023-02-14T15:22:47;101927.25;;;13.97
19061;BMP280;9663;48.996;8.334;2023-02-14T15:25:31;101930.91;;;14.29
19061;BMP280;9663;48.996;8.334;2023-02-14T15:27:58;101930.16;;;14.46
19061;BMP280;9663;48.996;8.334;2023-02-14T15:30:26;101933.59;;;14.54
19061;BMP280;9663;48.996;8.334;2023-02-14T15:32:56;101931.91;;;14.56
19061;BMP280;9663;48.996;8.334;2023-02-14T15:35:28;101935.34;;;14.58
19061;BMP280;9663;48.996;8.334;2023-02-14T15:37:56;101930.25;;;14.59
19061;BMP280;9663;48.996;8.334;2023-02-14T15:40:27;101940.44;;;14.56
19061;BMP280;9663;48.996;8.334;2023-02-14T15:42:54;101930.16;;;14.48
19061;BMP280;9663;48.996;8.334;2023-02-14T15:48:27;101925.81;;;14.30
19061;BMP280;9663;48.996;8.334;2023-02-14T15:50:57;101924.16;;;14.41
19061;BMP280;9663;48.996;8.334;2023-02-14T15:53:47;101920.81;;;14.48
19061;BMP280;9663;48.996;8.334;2023-02-14T15:58:45;101931.00;;;14.42
19061;BMP280;9663;48.996;8.334;2023-02-14T16:01:11;101929.16;;;14.20
19061;BMP280;9663;48.996;8.334;2023-02-14T16:03:41;101923.75;;;13.86
19061;BMP280;9663;48.996;8.334;2023-02-14T16:06:40;101919.06;;;13.41
19061;BMP280;9663;48.996;8.334;2023-02-14T16:09:28;101918.66;;;13.07
19061;BMP280;9663;48.996;8.334;2023-02-14T16:11:55;101922.53;;;12.78
19061;BMP280;9663;48.996;8.334;2023-02-14T16:14:34;101931.50;;;12.51
19061;BMP280;9663;48.996;8.334;2023-02-14T16:17:12;101929.41;;;12.25
19061;BMP280;9663;48.996;8.334;2023-02-14T16:19:42;101931.63;;;12.05
19061;BMP280;9663;48.996;8.334;2023-02-14T16:22:28;101932.06;;;11.81
19061;BMP280;9663;48.996;8.334;2023-02-14T16:24:58;101929.25;;;11.63
19061;BMP280;9663;48.996;8.334;2023-02-14T16:27:23;101934.91;;;11.49
19061;BMP280;9663;48.996;8.334;2023-02-14T16:29:49;101943.88;;;11.33
19061;BMP280;9663;48.996;8.334;2023-02-14T16:32:20;101936.00;;;11.20
19061;BMP280;9663;48.996;8.334;2023-02-14T16:34:47;101929.78;;;11.05
19061;BMP280;9663;48.996;8.334;2023-02-14T16:37:31;101932.03;;;10.90
19061;BMP280;9663;48.996;8.334;2023-02-14T16:40:00;101934.25;;;10.75
19061;BMP280;9663;48.996;8.334;2023-02-14T16:42:26;101936.50;;;10.62
19061;BMP280;9663;48.996;8.334;2023-02-14T16:44:52;101941.28;;;10.48
19061;BMP280;9663;48.996;8.334;2023-02-14T16:47:19;101938.44;;;10.36
19061;BMP280;9663;48.996;8.334;2023-02-14T16:49:45;101946.63;;;10.25
19061;BMP280;9663;48.996;8.334;2023-02-14T16:52:21;101940.47;;;10.14
19061;BMP280;9663;48.996;8.334;2023-02-14T16:54:48;101946.94;;;10.03
19061;BMP280;9663;48.996;8.334;2023-02-14T16:57:28;101950.84;;;9.91
19061;BMP280;9663;48.996;8.334;2023-02-14T16:59:55;101948.00;;;9.79
19061;BMP280;9663;48.996;8.334;2023-02-14T17:02:21;101945.16;;;9.67